sensor_id;sensor_type;location;lat;lon;timestamp;pressure;altitude;pressure_sealevel;temperature;humidity
23899;BME280;20544;50.018;20.010;2023-06-10T00:01:19;98501.41;;;17.12;100.00
23899;BME280;20544;50.018;20.010;2023-06-10T00:04:37;98508.16;;;17.15;100.00
23899;BME280;20544;50.018;20.010;2023-06-10T00:07:54;98509.80;;;17.16;100.00
23899;BME280;20544;50.018;20.010;2023-06-10T00:11:12;98514.12;;;17.17;100.00
23899;BME280;20544;50.018;20.010;2023-06-10T00:14:29;98511.77;;;17.21;100.00
23899;BME280;20544;50.018;20.010;2023-06-10T00:17:45;98514.00;;;17.24;100.00
23899;BME280;20544;50.018;20.010;2023-06-10T00:21:04;98515.03;;;17.23;100.00
23899;BME280;20544;50.018;20.010;2023-06-10T00:24:23;98516.08;;;17.22;100.00
23899;BME280;20544;50.018;20.010;2023-06-10T00:27:40;98517.36;;;17.19;100.00
23899;BME280;20544;50.018;20.010;2023-06-10T00:30:57;98511.20;;;17.19;100.00
23899;BME280;20544;50.018;20.010;2023-06-10T00:34:14;98513.64;;;17.20;100.00
23899;BME280;20544;50.018;20.010;2023-06-10T00:37:31;98517.95;;;17.21;100.00
23899;BME280;20544;50.018;20.010;2023-06-10T00:40:49;98516.08;;;17.22;100.00
23899;BME280;20544;50.018;20.010;2023-06-10T00:44:06;98523.31;;;17.21;100.00
23899;BME280;20544;50.018;20.010;2023-06-10T00:47:23;98522.16;;;17.17;100.00
23899;BME280;20544;50.018;20.010;2023-06-10T00:50:42;98523.52;;;17.08;100.00
23899;BME280;20544;50.018;20.010;2023-06-10T00:54:00;98529.92;;;17.07;100.00
23899;BME280;20544;50.018;20.010;2023-06-10T00:57:18;98522.23;;;16.98;100.00
23899;BME280;20544;50.018;20.010;2023-06-10T01:00:34;98532.44;;;16.90;100.00
23899;BME280;20544;50.018;20.010;2023-06-10T01:03:52;98531.76;;;16.94;100.00
23899;BME280;20544;50.018;20.010;2023-06-10T01:07:13;98531.19;;;16.92;100.00
23899;BME280;20544;50.018;20.010;2023-06-10T01:10:36;98543.15;;;16.90;100.00
23899;BME280;20544;50.018;20.010;2023-06-10T01:13:57;98534.03;;;16.79;100.00
23899;BME280;20544;50.018;20.010;2023-06-10T01:17:15;98529.45;;;16.68;100.00
23899;BME280;20544;50.018;20.010;2023-06-10T01:20:32;98523.37;;;16.60;100.00
23899;BME280;20544;50.018;20.010;2023-06-10T01:23:52;98528.72;;;16.60;100.00
23899;BME280;20544;50.018;20.010;2023-06-10T01:27:13;98530.26;;;16.68;100.00
23899;BME280;20544;50.018;20.010;2023-06-10T01:30:36;98537.62;;;16.73;100.00
23899;BME280;20544;50.018;20.010;2023-06-10T01:33:57;98537.85;;;16.71;100.00
23899;BME280;20544;50.018;20.010;2023-06-10T01:37:19;98539.33;;;16.67;100.00
23899;BME280;20544;50.018;20.010;2023-06-10T01:40:37;98533.41;;;16.65;100.00
23899;BME280;20544;50.018;20.010;2023-06-10T01:43:56;98535.72;;;16.61;100.00
23899;BME280;20544;50.018;20.010;2023-06-10T01:47:12;98536.28;;;16.63;100.00
23899;BME280;20544;50.018;20.010;2023-06-10T01:50:30;98534.45;;;16.64;100.00
23899;BME280;20544;50.018;20.010;2023-06-10T01:53:46;98535.48;;;16.63;100.00
23899;BME280;20544;50.018;20.010;2023-06-10T01:57:03;98538.16;;;16.63;100.00
23899;BME280;20544;50.018;20.010;2023-06-10T02:00:21;98533.61;;;16.63;100.00
23899;BME280;20544;50.018;20.010;2023-06-10T02:03:38;98536.08;;;16.65;100.00
23899;BME280;20544;50.018;20.010;2023-06-10T02:06:55;98529.89;;;16.64;100.00
23899;BME280;20544;50.018;20.010;2023-06-10T02:10:13;98533.41;;;16.65;100.00
23899;BME280;20544;50.018;20.010;2023-06-10T02:13:30;98530.13;;;16.63;100.00
23899;BME280;20544;50.018;20.010;2023-06-10T02:16:47;98535.84;;;16.66;100.00
23899;BME280;20544;50.018;20.010;2023-06-10T02:20:07;98528.62;;;16.67;100.00
23899;BME280;20544;50.018;20.010;2023-06-10T02:23:24;98531.42;;;16.72;100.00
23899;BME280;20544;50.018;20.010;2023-06-10T02:26:43;98535.30;;;16.76;100.00
23899;BME280;20544;50.018;20.010;2023-06-10T02:30:03;98531.59;;;16.77;100.00
23899;BME280;20544;50.018;20.010;2023-06-10T02:33:21;98531.11;;;16.80;100.00
23899;BME280;20544;50.018;20.010;2023-06-10T02:36:39;98538.11;;;16.81;100.00
23899;BME280;20544;50.018;20.010;2023-06-10T02:39:55;98541.39;;;16.84;100.00
23899;BME280;20544;50.018;20.010;2023-06-10T02:43:13;98537.19;;;16.88;100.00
23899;BME280;20544;50.018;20.010;2023-06-10T02:46:29;98538.16;;;16.93;100.00
23899;BME280;20544;50.018;20.010;2023-06-10T02:49:47;98550.30;;;16.96;100.00
23899;BME280;20544;50.018;20.010;2023-06-10T02:53:04;98553.91;;;17.02;100.00
23899;BME280;20544;50.018;20.010;2023-06-10T02:56:23;98558.35;;;17.08;100.00
23899;BME280;20544;50.018;20.010;2023-06-10T02:59:42;98554.16;;;17.12;100.00
23899;BME280;20544;50.018;20.010;2023-06-10T03:03:01;98558.83;;;17.17;100.00
23899;BME280;20544;50.018;20.010;2023-06-10T03:06:21;98568.87;;;17.21;100.00
23899;BME280;20544;50.018;20.010;2023-06-10T03:09:40;98571.08;;;17.24;100.00
23899;BME280;20544;50.018;20.010;2023-06-10T03:12:57;98570.63;;;17.27;100.00
23899;BME280;20544;50.018;20.010;2023-06-10T03:16:14;98578.66;;;17.27;100.00
23899;BME280;20544;50.018;20.010;2023-06-10T03:19:32;98575.52;;;17.30;100.00
23899;BME280;20544;50.018;20.010;2023-06-10T03:22:48;98580.06;;;17.30;100.00
23899;BME280;20544;50.018;20.010;2023-06-10T03:26:05;98581.11;;;17.29;100.00
23899;BME280;20544;50.018;20.010;2023-06-10T03:29:26;98581.70;;;17.31;100.00
23899;BME280;20544;50.018;20.010;2023-06-10T03:32:44;98582.98;;;17.28;100.00
23899;BME280;20544;50.018;20.010;2023-06-10T03:36:02;98580.06;;;17.30;100.00
23899;BME280;20544;50.018;20.010;2023-06-10T03:39:19;98572.83;;;17.30;100.00
23899;BME280;20544;50.018;20.010;2023-06-10T03:42:38;98581.70;;;17.31;100.00
23899;BME280;20544;50.018;20.010;2023-06-10T03:45:57;98582.75;;;17.30;100.00
23899;BME280;20544;50.018;20.010;2023-06-10T03:49:14;98586.23;;;17.30;100.00
23899;BME280;20544;50.018;20.010;2023-06-10T03:52:35;98579.23;;;17.29;100.00
23899;BME280;20544;50.018;20.010;2023-06-10T03:55:53;98584.83;;;17.28;100.00
23899;BME280;20544;50.018;20.010;2023-06-10T03:59:11;98588.34;;;17.28;100.00
23899;BME280;20544;50.018;20.010;2023-06-10T04:02:28;98590.79;;;17.30;100.00
23899;BME280;20544;50.018;20.010;2023-06-10T04:05:45;98601.03;;;17.33;100.00
23899;BME280;20544;50.018;20.010;2023-06-10T04:09:02;98590.31;;;17.33;100.00
23899;BME280;20544;50.018;20.010;2023-06-10T04:12:19;98597.99;;;17.29;100.00
23899;BME280;20544;50.018;20.010;2023-06-10T04:15:38;98609.31;;;17.32;100.00
23899;BME280;20544;50.018;20.010;2023-06-10T04:18:56;98606.19;;;17.35;100.00
23899;BME280;20544;50.018;20.010;2023-06-10T04:22:13;98599.75;;;17.36;100.00
23899;BME280;20544;50.018;20.010;2023-06-10T04:25:33;98608.16;;;17.39;100.00
23899;BME280;20544;50.018;20.010;2023-06-10T04:28:51;98605.47;;;17.39;100.00
23899;BME280;20544;50.018;20.010;2023-06-10T04:32:09;98605.95;;;17.36;100.00
23899;BME280;20544;50.018;20.010;2023-06-10T04:35:26;98607.80;;;17.36;100.00
23899;BME280;20544;50.018;20.010;2023-06-10T04:38:43;98603.71;;;17.33;100.00
23899;BME280;20544;50.018;20.010;2023-06-10T04:42:03;98606.19;;;17.35;100.00
23899;BME280;20544;50.018;20.010;2023-06-10T04:45:20;98608.63;;;17.36;100.00
23899;BME280;20544;50.018;20.010;2023-06-10T04:48:38;98615.27;;;17.34;100.00
23899;BME280;20544;50.018;20.010;2023-06-10T04:51:56;98622.47;;;17.33;100.00
23899;BME280;20544;50.018;20.010;2023-06-10T04:55:15;98623.07;;;17.35;100.00
23899;BME280;20544;50.018;20.010;2023-06-10T04:58:32;98626.91;;;17.39;100.00
23899;BME280;20544;50.018;20.010;2023-06-10T05:01:48;98628.55;;;17.40;100.00
23899;BME280;20544;50.018;20.010;2023-06-10T05:05:06;98633.68;;;17.42;100.00
23899;BME280;20544;50.018;20.010;2023-06-10T05:08:23;98638.47;;;17.40;100.00
23899;BME280;20544;50.018;20.010;2023-06-10T05:11:40;98641.95;;;17.40;100.00
23899;BME280;20544;50.018;20.010;2023-06-10T05:14:56;98641.72;;;17.42;100.00
23899;BME280;20544;50.018;20.010;2023-06-10T05:18:13;98644.40;;;17.42;100.00
23899;BME280;20544;50.018;20.010;2023-06-10T05:21:30;98642.31;;;17.44;100.00
23899;BME280;20544;50.018;20.010;2023-06-10T05:24:46;98649.20;;;17.52;100.00
23899;BME280;20544;50.018;20.010;2023-06-10T05:28:02;98652.24;;;17.55;100.00
23899;BME280;20544;50.018;20.010;2023-06-10T05:31:22;98650.60;;;17.54;100.00
23899;BME280;20544;50.018;20.010;2023-06-10T05:34:38;98649.12;;;17.58;100.00
23899;BME280;20544;50.018;20.010;2023-06-10T05:37:55;98658.56;;;17.61;100.00
23899;BME280;20544;50.018;20.010;2023-06-10T05:41:11;98662.41;;;17.65;100.00
23899;BME280;20544;50.018;20.010;2023-06-10T05:44:28;98657.64;;;17.67;100.00
23899;BME280;20544;50.018;20.010;2023-06-10T05:47:46;98657.84;;;17.66;100.00
23899;BME280;20544;50.018;20.010;2023-06-10T05:51:04;98663.45;;;17.64;100.00
23899;BME280;20544;50.018;20.010;2023-06-10T05:54:22;98668.01;;;17.75;100.00
23899;BME280;20544;50.018;20.010;2023-06-10T05:57:40;98668.84;;;17.76;100.00
23899;BME280;20544;50.018;20.010;2023-06-10T06:00:57;98670.48;;;17.77;100.00
23899;BME280;20544;50.018;20.010;2023-06-10T06:04:14;98676.32;;;17.86;100.00
23899;BME280;20544;50.018;20.010;2023-06-10T06:07:31;98672.35;;;17.88;100.00
23899;BME280;20544;50.018;20.010;2023-06-10T06:10:48;98669.79;;;17.93;100.00
23899;BME280;20544;50.018;20.010;2023-06-10T06:14:06;98680.52;;;17.93;100.00
23899;BME280;20544;50.018;20.010;2023-06-10T06:17:22;98674.49;;;17.98;100.00
23899;BME280;20544;50.018;20.010;2023-06-10T06:20:40;98673.42;;;17.99;100.00
23899;BME280;20544;50.018;20.010;2023-06-10T06:23:57;98675.89;;;18.01;100.00
23899;BME280;20544;50.018;20.010;2023-06-10T06:27:13;98672.14;;;18.02;100.00
23899;BME280;20544;50.018;20.010;2023-06-10T06:30:30;98672.04;;;18.08;100.00
23899;BME280;20544;50.018;20.010;2023-06-10T06:33:49;98680.65;;;18.10;100.00
23899;BME280;20544;50.018;20.010;2023-06-10T06:37:06;98678.22;;;18.21;100.00
23899;BME280;20544;50.018;20.010;2023-06-10T06:40:23;98686.38;;;18.26;100.00
23899;BME280;20544;50.018;20.010;2023-06-10T06:43:41;98689.30;;;18.24;100.00
23899;BME280;20544;50.018;20.010;2023-06-10T06:47:15;98697.47;;;18.30;100.00
23899;BME280;20544;50.018;20.010;2023-06-10T06:50:32;98704.80;;;18.34;100.00
23899;BME280;20544;50.018;20.010;2023-06-10T06:53:51;98704.94;;;18.39;100.00
23899;BME280;20544;50.018;20.010;2023-06-10T06:57:09;98706.79;;;18.51;100.00
23899;BME280;20544;50.018;20.010;2023-06-10T07:00:26;98704.21;;;18.56;100.00
23899;BME280;20544;50.018;20.010;2023-06-10T07:03:43;98706.06;;;18.55;100.00
23899;BME280;20544;50.018;20.010;2023-06-10T07:06:59;98705.95;;;18.62;100.00
23899;BME280;20544;50.018;20.010;2023-06-10T07:10:16;98714.91;;;18.68;100.00
23899;BME280;20544;50.018;20.010;2023-06-10T07:13:34;98719.23;;;18.69;100.00
23899;BME280;20544;50.018;20.010;2023-06-10T07:16:51;98720.77;;;18.65;100.00
23899;BME280;20544;50.018;20.010;2023-06-10T07:20:10;98723.22;;;18.66;100.00
23899;BME280;20544;50.018;20.010;2023-06-10T07:23:29;98726.84;;;18.72;100.00
23899;BME280;20544;50.018;20.010;2023-06-10T07:26:46;98730.67;;;18.76;100.00
23899;BME280;20544;50.018;20.010;2023-06-10T07:30:02;98734.52;;;18.80;100.00
23899;BME280;20544;50.018;20.010;2023-06-10T07:33:21;98737.80;;;18.82;100.00
23899;BME280;20544;50.018;20.010;2023-06-10T07:36:38;98724.60;;;18.81;100.00
23899;BME280;20544;50.018;20.010;2023-06-10T07:39:54;98737.20;;;18.80;100.00
23899;BME280;20544;50.018;20.010;2023-06-10T07:43:11;98733.70;;;18.80;100.00
23899;BME280;20544;50.018;20.010;2023-06-10T07:46:27;98736.50;;;18.85;100.00
23899;BME280;20544;50.018;20.010;2023-06-10T07:49:44;98731.02;;;18.91;100.00
23899;BME280;20544;50.018;20.010;2023-06-10T07:53:01;98741.98;;;19.02;100.00
23899;BME280;20544;50.018;20.010;2023-06-10T07:56:18;98740.42;;;19.18;100.00
23899;BME280;20544;50.018;20.010;2023-06-10T07:59:35;98736.72;;;19.36;100.00
23899;BME280;20544;50.018;20.010;2023-06-10T08:02:53;98744.09;;;19.58;100.00
23899;BME280;20544;50.018;20.010;2023-06-10T08:06:10;98754.38;;;19.61;100.00
23899;BME280;20544;50.018;20.010;2023-06-10T08:09:27;98743.37;;;19.62;100.00
23899;BME280;20544;50.018;20.010;2023-06-10T08:12:44;98746.48;;;19.71;100.00
23899;BME280;20544;50.018;20.010;2023-06-10T08:16:00;98757.77;;;19.85;100.00
23899;BME280;20544;50.018;20.010;2023-06-10T08:19:17;98760.33;;;19.92;100.00
23899;BME280;20544;50.018;20.010;2023-06-10T08:22:33;98760.24;;;19.86;100.00
23899;BME280;20544;50.018;20.010;2023-06-10T08:25:50;98747.92;;;19.91;100.00
23899;BME280;20544;50.018;20.010;2023-06-10T08:29:07;98752.89;;;20.16;100.00
23899;BME280;20544;50.018;20.010;2023-06-10T08:32:26;98761.63;;;20.23;100.00
23899;BME280;20544;50.018;20.010;2023-06-10T08:35:42;98753.80;;;20.22;100.00
23899;BME280;20544;50.018;20.010;2023-06-10T08:38:59;98745.55;;;20.28;100.00
23899;BME280;20544;50.018;20.010;2023-06-10T08:42:21;98750.66;;;20.47;100.00
23899;BME280;20544;50.018;20.010;2023-06-10T08:45:39;98759.20;;;20.61;100.00
23899;BME280;20544;50.018;20.010;2023-06-10T08:49:02;98758.40;;;20.60;100.00
23899;BME280;20544;50.018;20.010;2023-06-10T08:52:22;98753.66;;;20.67;100.00
23899;BME280;20544;50.018;20.010;2023-06-10T08:55:42;98760.58;;;20.80;100.00
23899;BME280;20544;50.018;20.010;2023-06-10T08:58:57;98756.95;;;20.92;100.00
23899;BME280;20544;50.018;20.010;2023-06-10T09:02:15;98753.51;;;20.96;100.00
23899;BME280;20544;50.018;20.010;2023-06-10T09:05:35;98755.63;;;21.16;100.00
23899;BME280;20544;50.018;20.010;2023-06-10T09:09:03;98748.42;;;21.22;100.00
23899;BME280;20544;50.018;20.010;2023-06-10T09:12:26;98748.97;;;21.24;100.00
23899;BME280;20544;50.018;20.010;2023-06-10T09:15:53;98754.05;;;21.21;100.00
23899;BME280;20544;50.018;20.010;2023-06-10T09:19:20;98755.73;;;21.27;100.00
23899;BME280;20544;50.018;20.010;2023-06-10T09:22:37;98759.31;;;21.32;100.00
23899;BME280;20544;50.018;20.010;2023-06-10T09:25:59;98745.63;;;21.39;100.00
23899;BME280;20544;50.018;20.010;2023-06-10T09:29:18;98752.20;;;21.48;100.00
23899;BME280;20544;50.018;20.010;2023-06-10T09:32:39;98753.01;;;21.49;100.00
23899;BME280;20544;50.018;20.010;2023-06-10T09:35:56;98744.87;;;21.44;100.00
23899;BME280;20544;50.018;20.010;2023-06-10T09:39:18;98746.77;;;21.43;100.00
23899;BME280;20544;50.018;20.010;2023-06-10T09:42:39;98750.27;;;21.44;100.00
23899;BME280;20544;50.018;20.010;2023-06-10T09:45:59;98747.30;;;21.45;100.00
23899;BME280;20544;50.018;20.010;2023-06-10T09:49:17;98757.66;;;21.54;100.00
23899;BME280;20544;50.018;20.010;2023-06-10T09:52:37;98756.41;;;21.61;100.00
23899;BME280;20544;50.018;20.010;2023-06-10T09:55:56;98753.03;;;21.76;100.00
23899;BME280;20544;50.018;20.010;2023-06-10T10:02:31;98763.18;;;21.42;100.00
23899;BME280;20544;50.018;20.010;2023-06-10T10:05:49;98757.63;;;21.26;100.00
23899;BME280;20544;50.018;20.010;2023-06-10T10:09:06;98756.38;;;21.12;100.00
23899;BME280;20544;50.018;20.010;2023-06-10T10:12:23;98768.36;;;20.99;100.00
23899;BME280;20544;50.018;20.010;2023-06-10T10:15:45;98772.87;;;20.71;100.00
23899;BME280;20544;50.018;20.010;2023-06-10T10:19:07;98771.55;;;20.74;100.00
23899;BME280;20544;50.018;20.010;2023-06-10T10:22:26;98771.20;;;20.70;100.00
23899;BME280;20544;50.018;20.010;2023-06-10T10:25:49;98753.49;;;20.74;100.00
23899;BME280;20544;50.018;20.010;2023-06-10T10:29:14;98762.16;;;20.76;100.00
23899;BME280;20544;50.018;20.010;2023-06-10T10:32:34;98759.33;;;20.88;100.00
23899;BME280;20544;50.018;20.010;2023-06-10T10:35:53;98754.05;;;21.21;100.00
23899;BME280;20544;50.018;20.010;2023-06-10T10:39:11;98765.30;;;21.62;100.00
23899;BME280;20544;50.018;20.010;2023-06-10T10:42:33;98764.68;;;21.55;100.00
23899;BME280;20544;50.018;20.010;2023-06-10T10:45:59;98764.24;;;21.41;100.00
23899;BME280;20544;50.018;20.010;2023-06-10T10:49:17;98760.91;;;21.28;100.00
23899;BME280;20544;50.018;20.010;2023-06-10T10:52:46;98763.28;;;21.25;100.00
23899;BME280;20544;50.018;20.010;2023-06-10T10:56:14;98764.47;;;21.12;100.00
23899;BME280;20544;50.018;20.010;2023-06-10T10:59:44;98760.53;;;20.97;100.00
23899;BME280;20544;50.018;20.010;2023-06-10T11:03:15;98756.46;;;20.95;100.00
23899;BME280;20544;50.018;20.010;2023-06-10T11:06:31;98753.67;;;20.90;100.00
23899;BME280;20544;50.018;20.010;2023-06-10T11:09:59;98762.47;;;20.80;100.00
23899;BME280;20544;50.018;20.010;2023-06-10T11:13:21;98757.89;;;20.80;100.00
23899;BME280;20544;50.018;20.010;2023-06-10T11:16:43;98760.42;;;20.70;100.00
23899;BME280;20544;50.018;20.010;2023-06-10T11:20:02;98762.41;;;20.58;100.00
23899;BME280;20544;50.018;20.010;2023-06-10T11:23:37;98759.97;;;20.56;100.00
23899;BME280;20544;50.018;20.010;2023-06-10T11:27:16;98752.63;;;20.51;100.00
23899;BME280;20544;50.018;20.010;2023-06-10T11:30:38;98746.98;;;20.53;100.00
23899;BME280;20544;50.018;20.010;2023-06-10T11:33:56;98736.53;;;20.57;100.00
23899;BME280;20544;50.018;20.010;2023-06-10T11:37:15;98751.24;;;20.49;100.00
23899;BME280;20544;50.018;20.010;2023-06-10T11:40:34;98748.88;;;20.52;100.00
23899;BME280;20544;50.018;20.010;2023-06-10T11:43:56;98754.80;;;20.55;100.00
23899;BME280;20544;50.018;20.010;2023-06-10T11:47:15;98756.63;;;20.49;100.00
23899;BME280;20544;50.018;20.010;2023-06-10T11:50:33;98756.05;;;20.47;100.00
23899;BME280;20544;50.018;20.010;2023-06-10T11:53:51;98753.54;;;20.40;100.00
23899;BME280;20544;50.018;20.010;2023-06-10T11:57:10;98752.89;;;20.33;100.00
23899;BME280;20544;50.018;20.010;2023-06-10T12:00:26;98760.23;;;20.38;100.00
23899;BME280;20544;50.018;20.010;2023-06-10T12:03:43;98757.55;;;20.38;100.00
23899;BME280;20544;50.018;20.010;2023-06-10T12:06:59;98760.56;;;20.41;100.00
23899;BME280;20544;50.018;20.010;2023-06-10T12:10:16;98759.45;;;20.59;100.00
23899;BME280;20544;50.018;20.010;2023-06-10T12:13:36;98744.03;;;20.72;100.00
23899;BME280;20544;50.018;20.010;2023-06-10T12:16:55;98752.17;;;20.77;100.00
23899;BME280;20544;50.018;20.010;2023-06-10T12:20:25;98751.69;;;20.80;100.00
23899;BME280;20544;50.018;20.010;2023-06-10T12:27:20;98747.86;;;20.98;100.00
23899;BME280;20544;50.018;20.010;2023-06-10T12:30:39;98755.95;;;20.98;100.00
23899;BME280;20544;50.018;20.010;2023-06-10T12:34:10;98749.69;;;20.92;100.00
23899;BME280;20544;50.018;20.010;2023-06-10T12:37:26;98755.57;;;20.89;100.00
23899;BME280;20544;50.018;20.010;2023-06-10T12:40:45;98748.23;;;20.84;100.00
23899;BME280;20544;50.018;20.010;2023-06-10T12:44:05;98740.20;;;20.90;100.00
23899;BME280;20544;50.018;20.010;2023-06-10T12:47:28;98753.62;;;20.84;100.00
23899;BME280;20544;50.018;20.010;2023-06-10T12:50:50;98745.84;;;20.88;100.00
23899;BME280;20544;50.018;20.010;2023-06-10T12:54:08;98747.55;;;20.94;100.00
23899;BME280;20544;50.018;20.010;2023-06-10T12:57:27;98733.89;;;21.01;100.00
23899;BME280;20544;50.018;20.010;2023-06-10T13:00:44;98746.37;;;21.07;100.00
23899;BME280;20544;50.018;20.010;2023-06-10T13:04:01;98731.31;;;21.11;100.00
23899;BME280;20544;50.018;20.010;2023-06-10T13:07:21;98735.44;;;21.19;100.00
23899;BME280;20544;50.018;20.010;2023-06-10T13:10:38;98734.94;;;21.22;100.00
23899;BME280;20544;50.018;20.010;2023-06-10T13:13:54;98733.00;;;21.17;100.00
23899;BME280;20544;50.018;20.010;2023-06-10T13:17:10;98735.06;;;21.10;100.00
23899;BME280;20544;50.018;20.010;2023-06-10T13:20:27;98724.41;;;20.98;100.00
23899;BME280;20544;50.018;20.010;2023-06-10T13:23:48;98734.44;;;21.03;100.00
23899;BME280;20544;50.018;20.010;2023-06-10T13:27:06;98737.14;;;21.03;100.00
23899;BME280;20544;50.018;20.010;2023-06-10T13:30:22;98739.77;;;20.98;100.00
23899;BME280;20544;50.018;20.010;2023-06-10T13:33:38;98741.67;;;20.97;100.00
23899;BME280;20544;50.018;20.010;2023-06-10T13:36:55;98736.22;;;20.92;100.00
23899;BME280;20544;50.018;20.010;2023-06-10T13:40:14;98733.75;;;20.91;100.00
23899;BME280;20544;50.018;20.010;2023-06-10T13:43:31;98738.59;;;20.89;100.00
23899;BME280;20544;50.018;20.010;2023-06-10T13:46:48;98749.06;;;20.85;100.00
23899;BME280;20544;50.018;20.010;2023-06-10T13:50:06;98736.07;;;20.82;100.00
23899;BME280;20544;50.018;20.010;2023-06-10T13:53:24;98748.91;;;20.75;100.00
23899;BME280;20544;50.018;20.010;2023-06-10T13:56:43;98745.66;;;20.73;100.00
23899;BME280;20544;50.018;20.010;2023-06-10T13:59:57;98743.84;;;20.78;100.00
23899;BME280;20544;50.018;20.010;2023-06-10T14:03:13;98729.05;;;20.81;100.00
23899;BME280;20544;50.018;20.010;2023-06-10T14:06:30;98745.22;;;20.81;100.00
23899;BME280;20544;50.018;20.010;2023-06-10T14:09:46;98742.84;;;20.84;100.00
23899;BME280;20544;50.018;20.010;2023-06-10T14:13:03;98738.02;;;20.87;100.00
23899;BME280;20544;50.018;20.010;2023-06-10T14:16:20;98747.16;;;20.85;100.00
23899;BME280;20544;50.018;20.010;2023-06-10T14:19:36;98736.45;;;20.91;100.00
23899;BME280;20544;50.018;20.010;2023-06-10T14:22:53;98733.52;;;20.92;100.00
23899;BME280;20544;50.018;20.010;2023-06-10T14:26:12;98729.80;;;20.98;100.00
23899;BME280;20544;50.018;20.010;2023-06-10T14:29:28;98744.36;;;20.97;100.00
23899;BME280;20544;50.018;20.010;2023-06-10T14:32:45;98726.88;;;21.00;100.00
23899;BME280;20544;50.018;20.010;2023-06-10T14:36:02;98735.44;;;20.97;100.00
23899;BME280;20544;50.018;20.010;2023-06-10T14:39:19;98740.20;;;20.90;100.00
23899;BME280;20544;50.018;20.010;2023-06-10T14:42:35;98733.44;;;20.87;100.00
23899;BME280;20544;50.018;20.010;2023-06-10T14:45:51;98741.30;;;20.89;100.00
23899;BME280;20544;50.018;20.010;2023-06-10T14:49:09;98741.67;;;20.97;100.00
23899;BME280;20544;50.018;20.010;2023-06-10T14:52:25;98727.88;;;20.94;100.00
23899;BME280;20544;50.018;20.010;2023-06-10T14:55:42;98737.88;;;20.98;100.00
23899;BME280;20544;50.018;20.010;2023-06-10T14:58:58;98739.52;;;20.99;100.00
23899;BME280;20544;50.018;20.010;2023-06-10T15:02:15;98727.19;;;21.04;100.00
23899;BME280;20544;50.018;20.010;2023-06-10T15:05:31;98743.05;;;21.00;100.00
23899;BME280;20544;50.018;20.010;2023-06-10T15:08:48;98728.67;;;20.94;100.00
23899;BME280;20544;50.018;20.010;2023-06-10T15:12:05;98731.38;;;20.94;100.00
23899;BME280;20544;50.018;20.010;2023-06-10T15:15:23;98732.27;;;21.00;100.00
23899;BME280;20544;50.018;20.010;2023-06-10T15:18:40;98736.08;;;21.04;100.00
23899;BME280;20544;50.018;20.010;2023-06-10T15:21:57;98737.34;;;20.96;100.00
23899;BME280;20544;50.018;20.010;2023-06-10T15:25:13;98741.89;;;20.96;100.00
23899;BME280;20544;50.018;20.010;2023-06-10T15:28:32;98739.14;;;20.91;100.00
23899;BME280;20544;50.018;20.010;2023-06-10T15:31:48;98738.40;;;20.95;100.00
23899;BME280;20544;50.018;20.010;2023-06-10T15:35:07;98741.61;;;20.92;100.00
23899;BME280;20544;50.018;20.010;2023-06-10T15:38:24;98748.12;;;20.96;100.00
23899;BME280;20544;50.018;20.010;2023-06-10T15:41:40;98755.31;;;20.91;100.00
23899;BME280;20544;50.018;20.010;2023-06-10T15:44:57;98752.81;;;20.84;100.00
23899;BME280;20544;50.018;20.010;2023-06-10T15:48:15;98742.23;;;20.77;100.00
23899;BME280;20544;50.018;20.010;2023-06-10T15:51:32;98747.52;;;20.72;100.00
23899;BME280;20544;50.018;20.010;2023-06-10T15:54:51;98744.19;;;20.65;100.00
23899;BME280;20544;50.018;20.010;2023-06-10T15:58:08;98750.89;;;20.62;100.00
23899;BME280;20544;50.018;20.010;2023-06-10T16:01:25;98759.78;;;20.63;100.00
23899;BME280;20544;50.018;20.010;2023-06-10T16:04:41;98765.48;;;20.66;100.00
23899;BME280;20544;50.018;20.010;2023-06-10T16:07:58;98761.89;;;20.61;100.00
23899;BME280;20544;50.018;20.010;2023-06-10T16:11:14;98762.81;;;20.49;100.00
23899;BME280;20544;50.018;20.010;2023-06-10T16:14:34;98778.17;;;20.49;100.00
23899;BME280;20544;50.018;20.010;2023-06-10T16:17:51;98775.09;;;20.40;100.00
23899;BME280;20544;50.018;20.010;2023-06-10T16:21:07;98773.92;;;20.36;100.00
23899;BME280;20544;50.018;20.010;2023-06-10T16:24:24;98774.69;;;20.31;100.00
23899;BME280;20544;50.018;20.010;2023-06-10T16:27:40;98774.69;;;20.31;100.00
23899;BME280;20544;50.018;20.010;2023-06-10T16:30:57;98767.91;;;20.29;100.00
23899;BME280;20544;50.018;20.010;2023-06-10T16:34:14;98774.11;;;20.29;100.00
23899;BME280;20544;50.018;20.010;2023-06-10T16:37:31;98775.67;;;20.25;100.00
23899;BME280;20544;50.018;20.010;2023-06-10T16:40:48;98788.47;;;20.18;100.00
23899;BME280;20544;50.018;20.010;2023-06-10T16:44:04;98786.50;;;20.13;100.00
23899;BME280;20544;50.018;20.010;2023-06-10T16:47:22;98786.75;;;20.12;100.00
23899;BME280;20544;50.018;20.010;2023-06-10T16:50:38;98803.72;;;19.95;100.00
23899;BME280;20544;50.018;20.010;2023-06-10T16:53:55;98792.62;;;19.92;100.00
23899;BME280;20544;50.018;20.010;2023-06-10T16:57:15;98801.16;;;19.88;100.00
23899;BME280;20544;50.018;20.010;2023-06-10T17:00:32;98803.77;;;19.83;100.00
23899;BME280;20544;50.018;20.010;2023-06-10T17:03:51;98804.79;;;19.82;100.00
23899;BME280;20544;50.018;20.010;2023-06-10T17:07:08;98801.08;;;19.83;100.00
23899;BME280;20544;50.018;20.010;2023-06-10T17:10:26;98799.07;;;19.79;100.00